sensor_id;sensor_type;location;lat;lon;timestamp;pressure;altitude;pressure_sealevel;temperature;humidity
5952;BME280;3001;42.622;23.194;2023-06-10T00:00:04;91015.13;;;20.14;92.24
5952;BME280;3001;42.622;23.194;2023-06-10T00:02:32;91006.00;;;20.08;92.69
5952;BME280;3001;42.622;23.194;2023-06-10T00:04:59;91013.44;;;19.99;93.06
5952;BME280;3001;42.622;23.194;2023-06-10T00:07:25;91017.09;;;19.87;93.41
5952;BME280;3001;42.622;23.194;2023-06-10T00:09:54;91011.06;;;19.87;93.64
5952;BME280;3001;42.622;23.194;2023-06-10T00:12:20;91016.31;;;19.83;93.72
5952;BME280;3001;42.622;23.194;2023-06-10T00:14:47;91025.16;;;20.01;92.41
5952;BME280;3001;42.622;23.194;2023-06-10T00:17:15;91022.16;;;20.03;90.98
5952;BME280;3001;42.622;23.194;2023-06-10T00:19:42;91029.22;;;19.95;90.67
5952;BME280;3001;42.622;23.194;2023-06-10T00:22:09;91020.91;;;19.93;89.91
5952;BME280;3001;42.622;23.194;2023-06-10T00:24:35;91018.47;;;19.74;91.73
5952;BME280;3001;42.622;23.194;2023-06-10T00:27:05;91019.16;;;19.68;91.95
5952;BME280;3001;42.622;23.194;2023-06-10T00:29:32;91015.69;;;19.60;93.29
5952;BME280;3001;42.622;23.194;2023-06-10T00:31:58;91025.47;;;19.60;93.33
5952;BME280;3001;42.622;23.194;2023-06-10T00:34:25;91026.53;;;19.55;93.00
5952;BME280;3001;42.622;23.194;2023-06-10T00:36:52;91021.50;;;19.40;93.53
5952;BME280;3001;42.622;23.194;2023-06-10T00:39:18;91019.50;;;19.30;93.85
5952;BME280;3001;42.622;23.194;2023-06-10T00:41:45;91013.38;;;19.23;93.88
5952;BME280;3001;42.622;23.194;2023-06-10T00:44:13;90998.91;;;19.10;94.61
5952;BME280;3001;42.622;23.194;2023-06-10T00:46:40;91014.13;;;19.23;94.21
5952;BME280;3001;42.622;23.194;2023-06-10T00:49:07;91020.28;;;19.05;95.63
5952;BME280;3001;42.622;23.194;2023-06-10T00:51:34;91019.34;;;19.20;95.37
5952;BME280;3001;42.622;23.194;2023-06-10T00:54:01;91013.34;;;19.19;94.70
5952;BME280;3001;42.622;23.194;2023-06-10T00:56:28;91010.75;;;19.23;94.02
5952;BME280;3001;42.622;23.194;2023-06-10T00:58:55;91006.41;;;19.37;94.02
5952;BME280;3001;42.622;23.194;2023-06-10T01:01:23;91009.38;;;19.32;94.58
5952;BME280;3001;42.622;23.194;2023-06-10T01:03:50;91011.00;;;19.43;95.40
5952;BME280;3001;42.622;23.194;2023-06-10T01:06:24;91019.75;;;19.54;94.42
5952;BME280;3001;42.622;23.194;2023-06-10T01:08:57;91023.59;;;19.60;93.54
5952;BME280;3001;42.622;23.194;2023-06-10T01:11:29;91012.06;;;19.75;94.10
5952;BME280;3001;42.622;23.194;2023-06-10T01:14:01;91019.34;;;19.89;93.04
5952;BME280;3001;42.622;23.194;2023-06-10T01:16:29;91025.91;;;20.02;92.68
5952;BME280;3001;42.622;23.194;2023-06-10T01:18:56;91032.19;;;19.90;93.12
5952;BME280;3001;42.622;23.194;2023-06-10T01:21:24;91028.78;;;19.90;93.41
5952;BME280;3001;42.622;23.194;2023-06-10T01:23:52;91023.16;;;19.91;92.93
5952;BME280;3001;42.622;23.194;2023-06-10T01:26:23;91026.13;;;19.86;93.13
5952;BME280;3001;42.622;23.194;2023-06-10T01:28:57;91019.88;;;19.65;93.94
5952;BME280;3001;42.622;23.194;2023-06-10T01:31:31;91023.19;;;19.58;94.43
5952;BME280;3001;42.622;23.194;2023-06-10T01:34:03;91016.00;;;19.52;95.61
5952;BME280;3001;42.622;23.194;2023-06-10T01:36:35;91012.75;;;19.65;95.72
5952;BME280;3001;42.622;23.194;2023-06-10T01:39:04;91014.69;;;19.72;95.50
5952;BME280;3001;42.622;23.194;2023-06-10T01:41:31;91004.09;;;19.68;94.60
5952;BME280;3001;42.622;23.194;2023-06-10T01:43:59;91020.34;;;19.74;94.37
5952;BME280;3001;42.622;23.194;2023-06-10T01:46:25;91017.78;;;19.81;94.14
5952;BME280;3001;42.622;23.194;2023-06-10T01:48:52;91020.84;;;19.86;93.57
5952;BME280;3001;42.622;23.194;2023-06-10T01:51:19;91025.34;;;19.86;93.31
5952;BME280;3001;42.622;23.194;2023-06-10T01:53:47;91022.59;;;19.72;93.71
5952;BME280;3001;42.622;23.194;2023-06-10T01:56:14;91020.94;;;19.60;94.28
5952;BME280;3001;42.622;23.194;2023-06-10T01:58:44;91011.91;;;19.58;94.68
5952;BME280;3001;42.622;23.194;2023-06-10T02:01:11;91018.28;;;19.57;94.86
5952;BME280;3001;42.622;23.194;2023-06-10T02:03:38;91010.41;;;19.60;94.67
5952;BME280;3001;42.622;23.194;2023-06-10T02:06:05;91005.22;;;19.67;94.45
5952;BME280;3001;42.622;23.194;2023-06-10T02:08:32;91003.44;;;19.75;94.32
5952;BME280;3001;42.622;23.194;2023-06-10T02:11:00;91002.31;;;19.79;93.72
5952;BME280;3001;42.622;23.194;2023-06-10T02:13:27;90997.31;;;19.67;93.86
5952;BME280;3001;42.622;23.194;2023-06-10T02:15:53;90996.59;;;19.70;93.83
5952;BME280;3001;42.622;23.194;2023-06-10T02:18:20;90998.91;;;19.75;93.61
5952;BME280;3001;42.622;23.194;2023-06-10T02:20:47;91004.94;;;19.79;92.83
5952;BME280;3001;42.622;23.194;2023-06-10T02:23:14;90998.06;;;19.68;93.98
5952;BME280;3001;42.622;23.194;2023-06-10T02:25:40;91005.69;;;19.76;94.50
5952;BME280;3001;42.622;23.194;2023-06-10T02:28:08;91005.66;;;19.73;94.38
5952;BME280;3001;42.622;23.194;2023-06-10T02:30:38;91004.31;;;19.89;93.49
5952;BME280;3001;42.622;23.194;2023-06-10T02:33:05;90999.78;;;19.86;93.21
5952;BME280;3001;42.622;23.194;2023-06-10T02:35:35;91001.97;;;19.81;94.52
5952;BME280;3001;42.622;23.194;2023-06-10T02:38:02;90996.34;;;19.82;93.74
5952;BME280;3001;42.622;23.194;2023-06-10T02:40:29;91002.84;;;19.92;92.97
5952;BME280;3001;42.622;23.194;2023-06-10T02:42:55;90997.22;;;19.97;93.06
5952;BME280;3001;42.622;23.194;2023-06-10T02:45:24;90988.88;;;19.91;93.25
5952;BME280;3001;42.622;23.194;2023-06-10T02:47:50;90986.84;;;19.74;94.65
5952;BME280;3001;42.622;23.194;2023-06-10T02:50:17;90985.06;;;19.85;94.04
5952;BME280;3001;42.622;23.194;2023-06-10T02:52:44;90978.88;;;20.07;93.22
5952;BME280;3001;42.622;23.194;2023-06-10T02:55:11;90980.75;;;20.03;93.26
5952;BME280;3001;42.622;23.194;2023-06-10T02:57:37;90984.44;;;19.99;93.47
5952;BME280;3001;42.622;23.194;2023-06-10T03:00:05;90980.00;;;20.06;93.13
5952;BME280;3001;42.622;23.194;2023-06-10T03:02:37;90972.28;;;19.91;93.69
5952;BME280;3001;42.622;23.194;2023-06-10T03:05:04;90985.94;;;20.00;93.93
5952;BME280;3001;42.622;23.194;2023-06-10T03:07:34;90995.66;;;19.92;94.80
5952;BME280;3001;42.622;23.194;2023-06-10T03:10:01;90991.56;;;19.95;94.39
5952;BME280;3001;42.622;23.194;2023-06-10T03:12:27;90994.72;;;20.07;93.26
5952;BME280;3001;42.622;23.194;2023-06-10T03:14:54;90993.16;;;20.03;93.88
5952;BME280;3001;42.622;23.194;2023-06-10T03:17:21;90994.47;;;19.83;95.48
5952;BME280;3001;42.622;23.194;2023-06-10T03:19:49;90998.66;;;19.87;95.11
5952;BME280;3001;42.622;23.194;2023-06-10T03:22:16;91009.19;;;19.91;94.49
5952;BME280;3001;42.622;23.194;2023-06-10T03:24:43;91009.38;;;20.05;93.81
5952;BME280;3001;42.622;23.194;2023-06-10T03:27:11;91008.13;;;19.95;94.66
5952;BME280;3001;42.622;23.194;2023-06-10T03:29:38;91016.72;;;19.85;94.81
5952;BME280;3001;42.622;23.194;2023-06-10T03:32:06;91015.53;;;19.83;95.79
5952;BME280;3001;42.622;23.194;2023-06-10T03:34:32;91014.59;;;19.65;95.75
5952;BME280;3001;42.622;23.194;2023-06-10T03:37:00;91011.50;;;19.56;96.75
5952;BME280;3001;42.622;23.194;2023-06-10T03:39:28;90998.88;;;19.72;96.08
5952;BME280;3001;42.622;23.194;2023-06-10T03:41:55;90996.44;;;19.56;97.37
5952;BME280;3001;42.622;23.194;2023-06-10T03:44:22;90997.72;;;19.69;97.20
5952;BME280;3001;42.622;23.194;2023-06-10T03:46:49;90993.09;;;19.59;98.12
5952;BME280;3001;42.622;23.194;2023-06-10T03:49:15;90992.66;;;19.54;98.54
5952;BME280;3001;42.622;23.194;2023-06-10T03:51:42;90985.22;;;19.63;98.75
5952;BME280;3001;42.622;23.194;2023-06-10T03:54:11;90985.78;;;19.42;100.00
5952;BME280;3001;42.622;23.194;2023-06-10T03:56:38;90991.16;;;19.53;99.68
5952;BME280;3001;42.622;23.194;2023-06-10T03:59:05;90987.41;;;19.54;99.98
5952;BME280;3001;42.622;23.194;2023-06-10T04:01:32;90989.13;;;19.76;98.19
5952;BME280;3001;42.622;23.194;2023-06-10T04:03:58;90985.06;;;19.85;98.45
5952;BME280;3001;42.622;23.194;2023-06-10T04:06:26;90983.88;;;20.19;97.13
5952;BME280;3001;42.622;23.194;2023-06-10T04:08:54;90983.47;;;20.14;97.32
5952;BME280;3001;42.622;23.194;2023-06-10T04:11:23;90980.84;;;20.17;97.18
5952;BME280;3001;42.622;23.194;2023-06-10T04:13:51;90988.66;;;20.07;97.21
5952;BME280;3001;42.622;23.194;2023-06-10T04:16:18;90979.38;;;20.20;97.25
5952;BME280;3001;42.622;23.194;2023-06-10T04:18:45;90984.78;;;20.41;96.22
5952;BME280;3001;42.622;23.194;2023-06-10T04:21:11;90982.91;;;20.41;95.65
5952;BME280;3001;42.622;23.194;2023-06-10T04:23:38;90980.34;;;20.52;95.78
5952;BME280;3001;42.622;23.194;2023-06-10T04:26:05;90980.69;;;20.47;95.92
5952;BME280;3001;42.622;23.194;2023-06-10T04:28:33;90976.19;;;20.47;96.18
5952;BME280;3001;42.622;23.194;2023-06-10T04:31:01;90979.16;;;20.46;96.86
5952;BME280;3001;42.622;23.194;2023-06-10T04:33:29;90978.44;;;20.49;96.61
5952;BME280;3001;42.622;23.194;2023-06-10T04:35:56;90977.75;;;20.59;96.65
5952;BME280;3001;42.622;23.194;2023-06-10T04:38:22;90984.91;;;20.58;97.02
5952;BME280;3001;42.622;23.194;2023-06-10T04:40:49;90979.25;;;20.56;97.36
5952;BME280;3001;42.622;23.194;2023-06-10T04:43:16;90975.50;;;20.61;97.26
5952;BME280;3001;42.622;23.194;2023-06-10T04:45:44;90978.56;;;20.66;97.22
5952;BME280;3001;42.622;23.194;2023-06-10T04:48:11;90964.84;;;20.47;97.19
5952;BME280;3001;42.622;23.194;2023-06-10T04:50:37;90984.13;;;20.54;97.90
5952;BME280;3001;42.622;23.194;2023-06-10T04:53:04;90981.13;;;20.56;98.13
5952;BME280;3001;42.622;23.194;2023-06-10T04:55:31;90975.50;;;20.61;97.90
5952;BME280;3001;42.622;23.194;2023-06-10T04:57:58;90972.88;;;20.61;98.06
5952;BME280;3001;42.622;23.194;2023-06-10T05:00:25;90977.09;;;20.72;97.60
5952;BME280;3001;42.622;23.194;2023-06-10T05:02:53;90978.94;;;20.68;97.78
5952;BME280;3001;42.622;23.194;2023-06-10T05:05:21;90978.50;;;20.59;98.25
5952;BME280;3001;42.622;23.194;2023-06-10T05:07:49;90978.88;;;20.61;98.16
5952;BME280;3001;42.622;23.194;2023-06-10T05:10:15;90980.47;;;20.73;97.57
5952;BME280;3001;42.622;23.194;2023-06-10T05:12:42;90986.19;;;20.82;96.95
5952;BME280;3001;42.622;23.194;2023-06-10T05:15:10;90986.31;;;20.96;96.61
5952;BME280;3001;42.622;23.194;2023-06-10T05:17:37;90993.47;;;20.99;96.57
5952;BME280;3001;42.622;23.194;2023-06-10T05:20:06;90994.47;;;20.80;96.86
5952;BME280;3001;42.622;23.194;2023-06-10T05:22:33;90988.06;;;20.81;97.25
5952;BME280;3001;42.622;23.194;2023-06-10T05:25:00;90984.63;;;20.70;97.89
5952;BME280;3001;42.622;23.194;2023-06-10T05:27:26;90991.13;;;20.83;97.81
5952;BME280;3001;42.622;23.194;2023-06-10T05:29:53;90990.44;;;20.93;96.38
5952;BME280;3001;42.622;23.194;2023-06-10T05:32:20;91001.00;;;20.93;95.90
5952;BME280;3001;42.622;23.194;2023-06-10T05:34:46;90999.88;;;20.94;95.60
5952;BME280;3001;42.622;23.194;2023-06-10T05:37:14;91002.16;;;20.99;95.38
5952;BME280;3001;42.622;23.194;2023-06-10T05:39:41;91001.41;;;21.02;95.20
5952;BME280;3001;42.622;23.194;2023-06-10T05:42:08;91004.03;;;20.95;95.81
5952;BME280;3001;42.622;23.194;2023-06-10T05:44:35;91008.63;;;21.12;95.55
5952;BME280;3001;42.622;23.194;2023-06-10T05:47:02;91003.75;;;21.14;95.78
5952;BME280;3001;42.622;23.194;2023-06-10T05:49:29;91006.75;;;21.16;95.60
5952;BME280;3001;42.622;23.194;2023-06-10T05:51:56;91013.97;;;21.22;95.43
5952;BME280;3001;42.622;23.194;2023-06-10T05:54:25;91004.50;;;21.18;95.45
5952;BME280;3001;42.622;23.194;2023-06-10T05:56:52;91012.44;;;21.14;95.91
5952;BME280;3001;42.622;23.194;2023-06-10T05:59:19;91015.47;;;21.20;95.62
5952;BME280;3001;42.622;23.194;2023-06-10T06:01:48;91009.84;;;21.25;95.33
5952;BME280;3001;42.622;23.194;2023-06-10T06:04:15;91008.31;;;21.20;95.86
5952;BME280;3001;42.622;23.194;2023-06-10T06:06:41;91014.69;;;21.16;96.33
5952;BME280;3001;42.622;23.194;2023-06-10T06:09:08;91016.69;;;21.36;94.72
5952;BME280;3001;42.622;23.194;2023-06-10T06:11:36;91013.31;;;21.46;94.05
5952;BME280;3001;42.622;23.194;2023-06-10T06:14:03;91014.44;;;21.45;94.72
5952;BME280;3001;42.622;23.194;2023-06-10T06:16:30;91003.91;;;21.59;94.63
5952;BME280;3001;42.622;23.194;2023-06-10T06:18:56;91013.03;;;21.69;94.05
5952;BME280;3001;42.622;23.194;2023-06-10T06:21:23;91008.13;;;21.74;93.49
5952;BME280;3001;42.622;23.194;2023-06-10T06:23:50;91011.91;;;21.77;93.76
5952;BME280;3001;42.622;23.194;2023-06-10T06:26:16;91012.31;;;21.82;93.55
5952;BME280;3001;42.622;23.194;2023-06-10T06:28:44;91007.78;;;21.93;93.44
5952;BME280;3001;42.622;23.194;2023-06-10T06:31:11;91018.81;;;22.06;92.85
5952;BME280;3001;42.622;23.194;2023-06-10T06:33:38;91018.00;;;22.02;92.87
5952;BME280;3001;42.622;23.194;2023-06-10T06:36:05;91019.91;;;22.08;92.52
5952;BME280;3001;42.622;23.194;2023-06-10T06:38:32;91021.06;;;22.18;91.82
5952;BME280;3001;42.622;23.194;2023-06-10T06:40:58;91010.50;;;22.28;92.03
5952;BME280;3001;42.622;23.194;2023-06-10T06:43:28;91003.69;;;22.31;92.39
5952;BME280;3001;42.622;23.194;2023-06-10T06:45:56;91009.78;;;22.38;91.69
5952;BME280;3001;42.622;23.194;2023-06-10T06:48:23;91007.50;;;22.51;92.13
5952;BME280;3001;42.622;23.194;2023-06-10T06:50:50;91007.13;;;22.59;91.89
5952;BME280;3001;42.622;23.194;2023-06-10T06:53:16;91000.31;;;22.65;91.87
5952;BME280;3001;42.622;23.194;2023-06-10T06:55:43;91003.31;;;22.74;91.92
5952;BME280;3001;42.622;23.194;2023-06-10T06:58:10;91006.34;;;22.83;91.57
5952;BME280;3001;42.622;23.194;2023-06-10T07:00:37;91007.47;;;22.89;92.03
5952;BME280;3001;42.622;23.194;2023-06-10T07:03:05;91007.06;;;22.97;92.12
5952;BME280;3001;42.622;23.194;2023-06-10T07:05:31;90999.50;;;22.99;91.52
5952;BME280;3001;42.622;23.194;2023-06-10T07:07:58;91001.00;;;23.04;90.76
5952;BME280;3001;42.622;23.194;2023-06-10T07:10:25;90991.16;;;22.97;90.79
5952;BME280;3001;42.622;23.194;2023-06-10T07:12:52;90999.09;;;23.08;90.07
5952;BME280;3001;42.622;23.194;2023-06-10T07:15:19;90997.97;;;23.02;89.33
5952;BME280;3001;42.622;23.194;2023-06-10T07:17:45;90997.97;;;23.16;89.40
5952;BME280;3001;42.622;23.194;2023-06-10T07:20:14;90994.16;;;23.17;90.20
5952;BME280;3001;42.622;23.194;2023-06-10T07:22:41;91001.75;;;23.22;89.95
5952;BME280;3001;42.622;23.194;2023-06-10T07:25:08;90996.38;;;23.36;87.20
5952;BME280;3001;42.622;23.194;2023-06-10T07:27:34;90989.97;;;23.30;86.36
5952;BME280;3001;42.622;23.194;2023-06-10T07:30:02;90987.66;;;23.42;85.76
5952;BME280;3001;42.622;23.194;2023-06-10T07:32:30;91001.25;;;23.51;85.40
5952;BME280;3001;42.622;23.194;2023-06-10T07:34:56;90997.13;;;23.43;85.61
5952;BME280;3001;42.622;23.194;2023-06-10T07:37:24;91002.00;;;23.55;83.96
5952;BME280;3001;42.622;23.194;2023-06-10T07:39:51;91004.66;;;23.59;82.16
5952;BME280;3001;42.622;23.194;2023-06-10T07:42:18;90997.44;;;23.59;83.43
5952;BME280;3001;42.622;23.194;2023-06-10T07:44:44;90995.50;;;23.67;84.00
5952;BME280;3001;42.622;23.194;2023-06-10T07:47:11;90993.22;;;23.65;82.15
5952;BME280;3001;42.622;23.194;2023-06-10T07:49:38;91000.44;;;23.61;81.95
5952;BME280;3001;42.622;23.194;2023-06-10T07:52:05;91002.69;;;23.66;81.86
5952;BME280;3001;42.622;23.194;2023-06-10T07:54:34;90995.09;;;23.75;80.81
5952;BME280;3001;42.622;23.194;2023-06-10T07:57:00;91003.09;;;23.65;78.64
5952;BME280;3001;42.622;23.194;2023-06-10T07:59:27;90997.75;;;23.75;77.33
5952;BME280;3001;42.622;23.194;2023-06-10T08:01:54;90996.97;;;23.82;77.84
5952;BME280;3001;42.622;23.194;2023-06-10T08:04:21;90998.44;;;23.86;77.65
5952;BME280;3001;42.622;23.194;2023-06-10T08:06:47;91008.69;;;23.91;78.71
5952;BME280;3001;42.622;23.194;2023-06-10T08:09:14;91002.91;;;24.07;78.76
5952;BME280;3001;42.622;23.194;2023-06-10T08:11:42;90999.94;;;23.91;76.68
5952;BME280;3001;42.622;23.194;2023-06-10T08:14:09;90999.16;;;23.97;77.99
5952;BME280;3001;42.622;23.194;2023-06-10T08:16:35;91003.63;;;24.07;77.83
5952;BME280;3001;42.622;23.194;2023-06-10T08:19:02;90988.41;;;24.18;76.31
5952;BME280;3001;42.622;23.194;2023-06-10T08:21:29;90999.63;;;24.40;78.50
5952;BME280;3001;42.622;23.194;2023-06-10T08:23:55;90988.97;;;24.47;79.41
5952;BME280;3001;42.622;23.194;2023-06-10T08:26:22;90981.28;;;24.63;79.03
5952;BME280;3001;42.622;23.194;2023-06-10T08:28:50;90983.69;;;24.87;79.89
5952;BME280;3001;42.622;23.194;2023-06-10T08:31:17;90987.03;;;24.94;72.86
5952;BME280;3001;42.622;23.194;2023-06-10T08:33:43;90983.94;;;25.03;75.12
5952;BME280;3001;42.622;23.194;2023-06-10T08:36:10;90982.59;;;25.25;73.14
5952;BME280;3001;42.622;23.194;2023-06-10T08:38:37;90976.69;;;25.40;74.78
5952;BME280;3001;42.622;23.194;2023-06-10T08:41:05;90996.56;;;25.32;73.08
5952;BME280;3001;42.622;23.194;2023-06-10T08:43:34;90985.78;;;25.46;71.87
5952;BME280;3001;42.622;23.194;2023-06-10T08:46:06;90989.50;;;25.52;70.47
5952;BME280;3001;42.622;23.194;2023-06-10T08:48:37;90989.72;;;25.65;71.04
5952;BME280;3001;42.622;23.194;2023-06-10T08:51:05;90988.78;;;25.78;72.07
5952;BME280;3001;42.622;23.194;2023-06-10T08:53:33;90982.94;;;25.94;69.98
5952;BME280;3001;42.622;23.194;2023-06-10T08:56:04;90976.59;;;26.11;70.43
5952;BME280;3001;42.622;23.194;2023-06-10T08:58:32;90967.66;;;25.98;68.95
5952;BME280;3001;42.622;23.194;2023-06-10T09:01:07;90964.34;;;25.90;70.30
5952;BME280;3001;42.622;23.194;2023-06-10T09:03:34;90967.25;;;25.99;69.96
5952;BME280;3001;42.622;23.194;2023-06-10T09:06:05;90969.72;;;26.13;71.43
5952;BME280;3001;42.622;23.194;2023-06-10T09:08:33;90966.94;;;26.20;69.49
5952;BME280;3001;42.622;23.194;2023-06-10T09:11:00;90968.63;;;26.34;68.50
5952;BME280;3001;42.622;23.194;2023-06-10T09:13:27;90971.72;;;26.32;70.34
5952;BME280;3001;42.622;23.194;2023-06-10T09:15:54;90971.13;;;26.44;68.77
5952;BME280;3001;42.622;23.194;2023-06-10T09:18:23;90974.56;;;26.48;67.77
5952;BME280;3001;42.622;23.194;2023-06-10T09:20:50;90965.41;;;26.49;67.07
5952;BME280;3001;42.622;23.194;2023-06-10T09:23:17;90962.22;;;26.58;68.13
5952;BME280;3001;42.622;23.194;2023-06-10T09:25:43;90964.88;;;26.80;66.29
5952;BME280;3001;42.622;23.194;2023-06-10T09:28:13;90960.06;;;26.72;66.96
5952;BME280;3001;42.622;23.194;2023-06-10T09:30:41;90966.25;;;26.88;68.09
5952;BME280;3001;42.622;23.194;2023-06-10T09:33:11;90969.75;;;27.05;67.30
5952;BME280;3001;42.622;23.194;2023-06-10T09:35:45;90958.34;;;27.04;66.38
5952;BME280;3001;42.622;23.194;2023-06-10T09:38:14;90950.50;;;26.97;63.63
5952;BME280;3001;42.622;23.194;2023-06-10T09:40:48;90963.59;;;27.11;65.51
5952;BME280;3001;42.622;23.194;2023-06-10T09:43:15;90958.81;;;27.42;66.34
5952;BME280;3001;42.622;23.194;2023-06-10T09:45:42;90958.84;;;27.61;66.49
5952;BME280;3001;42.622;23.194;2023-06-10T09:48:09;90956.50;;;27.63;64.95
5952;BME280;3001;42.622;23.194;2023-06-10T09:50:42;90963.50;;;27.57;60.20
5952;BME280;3001;42.622;23.194;2023-06-10T09:53:10;90955.16;;;27.75;63.14
5952;BME280;3001;42.622;23.194;2023-06-10T09:55:37;90943.59;;;27.97;66.24
5952;BME280;3001;42.622;23.194;2023-06-10T09:58:04;90948.88;;;28.01;64.93
5952;BME280;3001;42.622;23.194;2023-06-10T10:00:32;90955.03;;;27.98;61.24
5952;BME280;3001;42.622;23.194;2023-06-10T10:02:59;90949.34;;;27.96;62.93
5952;BME280;3001;42.622;23.194;2023-06-10T10:05:27;90951.47;;;28.04;64.91
5952;BME280;3001;42.622;23.194;2023-06-10T10:07:56;90946.34;;;27.94;64.41
5952;BME280;3001;42.622;23.194;2023-06-10T10:10:23;90945.94;;;27.95;62.66
5952;BME280;3001;42.622;23.194;2023-06-10T10:12:54;90933.84;;;28.07;64.72
5952;BME280;3001;42.622;23.194;2023-06-10T10:15:23;90929.00;;;28.02;66.21
5952;BME280;3001;42.622;23.194;2023-06-10T10:17:53;90928.63;;;28.19;66.03
5952;BME280;3001;42.622;23.194;2023-06-10T10:20:26;90936.88;;;28.09;62.27
5952;BME280;3001;42.622;23.194;2023-06-10T10:22:57;90929.63;;;28.25;61.33
5952;BME280;3001;42.622;23.194;2023-06-10T10:25:27;90924.91;;;28.13;63.40
5952;BME280;3001;42.622;23.194;2023-06-10T10:27:57;90941.03;;;28.26;62.85
5952;BME280;3001;42.622;23.194;2023-06-10T10:30:25;90936.13;;;28.24;61.04
5952;BME280;3001;42.622;23.194;2023-06-10T10:32:57;90932.47;;;28.34;62.42
5952;BME280;3001;42.622;23.194;2023-06-10T10:35:25;90937.00;;;28.53;62.20
5952;BME280;3001;42.622;23.194;2023-06-10T10:37:53;90925.47;;;28.56;61.05
5952;BME280;3001;42.622;23.194;2023-06-10T10:40:22;90928.97;;;28.85;61.66
5952;BME280;3001;42.622;23.194;2023-06-10T10:42:50;90932.69;;;28.87;58.60
5952;BME280;3001;42.622;23.194;2023-06-10T10:45:17;90926.06;;;28.95;61.06
5952;BME280;3001;42.622;23.194;2023-06-10T10:47:46;90926.78;;;28.96;60.30
5952;BME280;3001;42.622;23.194;2023-06-10T10:50:14;90913.19;;;28.90;56.98
5952;BME280;3001;42.622;23.194;2023-06-10T10:52:57;90918.59;;;28.87;58.69
5952;BME280;3001;42.622;23.194;2023-06-10T10:55:27;90907.59;;;28.69;58.71
5952;BME280;3001;42.622;23.194;2023-06-10T10:57:55;90912.88;;;28.41;58.57
5952;BME280;3001;42.622;23.194;2023-06-10T11:00:28;90920.22;;;28.37;59.68
5952;BME280;3001;42.622;23.194;2023-06-10T11:03:00;90914.63;;;28.31;59.38
5952;BME280;3001;42.622;23.194;2023-06-10T11:05:32;90896.38;;;28.10;60.70
5952;BME280;3001;42.622;23.194;2023-06-10T11:08:01;90906.22;;;28.13;61.47
5952;BME280;3001;42.622;23.194;2023-06-10T11:10:31;90905.78;;;27.99;59.51
5952;BME280;3001;42.622;23.194;2023-06-10T11:12:58;90901.56;;;28.01;60.41
5952;BME280;3001;42.622;23.194;2023-06-10T11:15:26;90901.22;;;27.99;59.78
5952;BME280;3001;42.622;23.194;2023-06-10T11:18:13;90900.72;;;28.04;58.98
5952;BME280;3001;42.622;23.194;2023-06-10T11:20:44;90893.31;;;28.12;60.18
5952;BME280;3001;42.622;23.194;2023-06-10T11:23:24;90893.06;;;28.22;63.39
5952;BME280;3001;42.622;23.194;2023-06-10T11:26:09;90894.34;;;28.34;60.53
5952;BME280;3001;42.622;23.194;2023-06-10T11:28:36;90878.06;;;28.44;63.42
5952;BME280;3001;42.622;23.194;2023-06-10T11:31:02;90874.09;;;28.49;59.95
5952;BME280;3001;42.622;23.194;2023-06-10T11:33:29;90870.03;;;28.60;56.50
5952;BME280;3001;42.622;23.194;2023-06-10T11:35:57;90885.28;;;28.75;58.67
5952;BME280;3001;42.622;23.194;2023-06-10T11:38:24;90874.06;;;28.80;57.83
5952;BME280;3001;42.622;23.194;2023-06-10T11:40:52;90874.13;;;28.93;54.34
5952;BME280;3001;42.622;23.194;2023-06-10T11:43:19;90874.63;;;29.04;56.88
5952;BME280;3001;42.622;23.194;2023-06-10T11:45:46;90874.38;;;28.98;52.77
5952;BME280;3001;42.622;23.194;2023-06-10T11:48:13;90875.00;;;28.90;55.94
5952;BME280;3001;42.622;23.194;2023-06-10T11:50:39;90864.34;;;28.86;56.92
5952;BME280;3001;42.622;23.194;2023-06-10T11:53:08;90873.13;;;28.87;57.81
5952;BME280;3001;42.622;23.194;2023-06-10T11:55:42;90876.88;;;28.61;56.16
5952;BME280;3001;42.622;23.194;2023-06-10T11:58:14;90868.06;;;28.76;56.92
5952;BME280;3001;42.622;23.194;2023-06-10T12:00:45;90871.53;;;28.61;57.43
5952;BME280;3001;42.622;23.194;2023-06-10T12:03:12;90861.81;;;28.51;58.37
5952;BME280;3001;42.622;23.194;2023-06-10T12:05:39;90861.50;;;28.33;57.35
5952;BME280;3001;42.622;23.194;2023-06-10T12:08:09;90873.00;;;28.14;58.28
5952;BME280;3001;42.622;23.194;2023-06-10T12:10:39;90868.66;;;28.04;59.35
5952;BME280;3001;42.622;23.194;2023-06-10T12:13:06;90872.41;;;27.91;57.08
5952;BME280;3001;42.622;23.194;2023-06-10T12:15:34;90879.50;;;27.81;59.40
5952;BME280;3001;42.622;23.194;2023-06-10T12:18:01;90865.22;;;27.88;59.07
5952;BME280;3001;42.622;23.194;2023-06-10T12:20:29;90862.91;;;27.70;60.15
5952;BME280;3001;42.622;23.194;2023-06-10T12:22:59;90858.47;;;27.64;59.74
5952;BME280;3001;42.622;23.194;2023-06-10T12:25:27;90855.97;;;27.57;60.37
5952;BME280;3001;42.622;23.194;2023-06-10T12:27:54;90855.88;;;27.44;58.49
5952;BME280;3001;42.622;23.194;2023-06-10T12:30:23;90853.88;;;27.48;60.44
5952;BME280;3001;42.622;23.194;2023-06-10T12:32:53;90848.47;;;27.32;60.85
5952;BME280;3001;42.622;23.194;2023-06-10T12:35:21;90842.13;;;27.26;61.46
5952;BME280;3001;42.622;23.194;2023-06-10T12:37:57;90844.38;;;27.08;61.50
5952;BME280;3001;42.622;23.194;2023-06-10T12:40:28;90848.50;;;27.13;62.62
5952;BME280;3001;42.622;23.194;2023-06-10T12:42:56;90842.13;;;27.26;62.34
5952;BME280;3001;42.622;23.194;2023-06-10T12:45:26;90849.25;;;27.33;62.61
5952;BME280;3001;42.622;23.194;2023-06-10T12:48:04;90852.66;;;27.33;62.25
5952;BME280;3001;42.622;23.194;2023-06-10T12:50:31;90845.97;;;27.25;63.07
5952;BME280;3001;42.622;23.194;2023-06-10T12:52:59;90845.19;;;27.25;62.20
5952;BME280;3001;42.622;23.194;2023-06-10T12:55:25;90845.63;;;27.23;62.17
5952;BME280;3001;42.622;23.194;2023-06-10T12:57:54;90844.13;;;27.22;62.08
5952;BME280;3001;42.622;23.194;2023-06-10T13:00:21;90840.97;;;27.27;63.33
5952;BME280;3001;42.622;23.194;2023-06-10T13:02:51;90854.13;;;27.18;62.11
5952;BME280;3001;42.622;23.194;2023-06-10T13:05:19;90849.19;;;27.17;62.53
5952;BME280;3001;42.622;23.194;2023-06-10T13:07:46;90847.88;;;27.05;63.15
5952;BME280;3001;42.622;23.194;2023-06-10T13:10:13;90850.13;;;27.07;63.38
5952;BME280;3001;42.622;23.194;2023-06-10T13:12:41;90847.88;;;27.05;62.31